sensor_id;sensor_type;location;lat;lon;timestamp;temperature;humidity
2447;DHT22;26430;48.818;9.244;2023-04-15T00:00:36;7.40;99.90
2447;DHT22;26430;48.818;9.244;2023-04-15T00:03:02;7.20;99.90
2447;DHT22;26430;48.818;9.244;2023-04-15T00:05:30;7.20;99.90
2447;DHT22;26430;48.818;9.244;2023-04-15T00:07:56;7.00;99.90
2447;DHT22;26430;48.818;9.244;2023-04-15T00:10:22;7.00;99.90
2447;DHT22;26430;48.818;9.244;2023-04-15T00:12:47;7.00;99.90
2447;DHT22;26430;48.818;9.244;2023-04-15T00:15:13;6.90;99.90
2447;DHT22;26430;48.818;9.244;2023-04-15T00:17:38;6.80;99.90
2447;DHT22;26430;48.818;9.244;2023-04-15T00:20:04;6.70;99.90
2447;DHT22;26430;48.818;9.244;2023-04-15T00:22:31;6.70;99.90
2447;DHT22;26430;48.818;9.244;2023-04-15T00:24:57;6.70;99.90
2447;DHT22;26430;48.818;9.244;2023-04-15T00:27:22;6.60;99.90
2447;DHT22;26430;48.818;9.244;2023-04-15T00:29:48;6.60;99.90
2447;DHT22;26430;48.818;9.244;2023-04-15T00:32:13;6.60;99.90
2447;DHT22;26430;48.818;9.244;2023-04-15T00:34:40;6.50;99.90
2447;DHT22;26430;48.818;9.244;2023-04-15T00:37:06;6.50;99.90
2447;DHT22;26430;48.818;9.244;2023-04-15T00:39:31;6.50;99.90
2447;DHT22;26430;48.818;9.244;2023-04-15T00:41:57;6.50;99.90
2447;DHT22;26430;48.818;9.244;2023-04-15T00:44:22;6.50;99.90
2447;DHT22;26430;48.818;9.244;2023-04-15T00:46:50;6.40;99.90
2447;DHT22;26430;48.818;9.244;2023-04-15T00:49:16;6.30;99.90
2447;DHT22;26430;48.818;9.244;2023-04-15T00:51:44;6.40;99.90
2447;DHT22;26430;48.818;9.244;2023-04-15T00:54:10;6.40;99.90
2447;DHT22;26430;48.818;9.244;2023-04-15T00:56:37;6.40;99.90
2447;DHT22;26430;48.818;9.244;2023-04-15T00:59:04;6.40;99.90
2447;DHT22;26430;48.818;9.244;2023-04-15T01:01:32;6.40;99.90
2447;DHT22;26430;48.818;9.244;2023-04-15T01:03:58;6.40;99.90
2447;DHT22;26430;48.818;9.244;2023-04-15T01:06:24;6.50;99.90
2447;DHT22;26430;48.818;9.244;2023-04-15T01:08:49;6.40;99.90
2447;DHT22;26430;48.818;9.244;2023-04-15T01:11:16;6.40;99.90
2447;DHT22;26430;48.818;9.244;2023-04-15T01:13:42;6.50;99.90
2447;DHT22;26430;48.818;9.244;2023-04-15T01:16:08;6.50;99.90
2447;DHT22;26430;48.818;9.244;2023-04-15T01:18:35;6.40;99.90
2447;DHT22;26430;48.818;9.244;2023-04-15T01:21:02;6.30;99.90
2447;DHT22;26430;48.818;9.244;2023-04-15T01:23:29;6.30;99.90
2447;DHT22;26430;48.818;9.244;2023-04-15T01:25:55;6.20;99.90
2447;DHT22;26430;48.818;9.244;2023-04-15T01:28:22;6.30;99.90
2447;DHT22;26430;48.818;9.244;2023-04-15T01:30:48;6.30;99.90
2447;DHT22;26430;48.818;9.244;2023-04-15T01:33:14;6.20;99.90
2447;DHT22;26430;48.818;9.244;2023-04-15T01:35:40;6.10;99.90
2447;DHT22;26430;48.818;9.244;2023-04-15T01:38:08;6.10;99.90
2447;DHT22;26430;48.818;9.244;2023-04-15T01:40:35;6.00;99.90
2447;DHT22;26430;48.818;9.244;2023-04-15T01:43:01;5.90;99.90
2447;DHT22;26430;48.818;9.244;2023-04-15T01:45:27;5.90;99.90
2447;DHT22;26430;48.818;9.244;2023-04-15T01:47:53;5.90;99.90
2447;DHT22;26430;48.818;9.244;2023-04-15T01:50:18;5.90;99.90
2447;DHT22;26430;48.818;9.244;2023-04-15T01:52:45;5.90;99.90
2447;DHT22;26430;48.818;9.244;2023-04-15T01:55:11;5.90;99.90
2447;DHT22;26430;48.818;9.244;2023-04-15T01:57:37;6.00;99.90
2447;DHT22;26430;48.818;9.244;2023-04-15T02:00:02;6.20;99.90
2447;DHT22;26430;48.818;9.244;2023-04-15T02:02:28;6.20;99.90
2447;DHT22;26430;48.818;9.244;2023-04-15T02:04:54;6.40;99.90
2447;DHT22;26430;48.818;9.244;2023-04-15T02:07:20;6.40;99.90
2447;DHT22;26430;48.818;9.244;2023-04-15T02:09:46;6.40;99.90
2447;DHT22;26430;48.818;9.244;2023-04-15T02:12:12;6.50;99.90
2447;DHT22;26430;48.818;9.244;2023-04-15T02:14:38;6.40;99.90
2447;DHT22;26430;48.818;9.244;2023-04-15T02:17:04;6.30;99.90
2447;DHT22;26430;48.818;9.244;2023-04-15T02:19:35;6.40;99.90
2447;DHT22;26430;48.818;9.244;2023-04-15T02:22:01;5.70;99.90
2447;DHT22;26430;48.818;9.244;2023-04-15T02:24:27;5.00;99.90
2447;DHT22;26430;48.818;9.244;2023-04-15T02:26:53;4.70;99.90
2447;DHT22;26430;48.818;9.244;2023-04-15T02:29:18;4.60;99.90
2447;DHT22;26430;48.818;9.244;2023-04-15T02:31:44;4.50;99.90
2447;DHT22;26430;48.818;9.244;2023-04-15T02:34:10;4.60;99.90
2447;DHT22;26430;48.818;9.244;2023-04-15T02:36:35;4.70;99.90
2447;DHT22;26430;48.818;9.244;2023-04-15T02:39:01;4.90;99.90
2447;DHT22;26430;48.818;9.244;2023-04-15T02:41:28;5.10;99.90
2447;DHT22;26430;48.818;9.244;2023-04-15T02:43:54;5.00;99.90
2447;DHT22;26430;48.818;9.244;2023-04-15T02:46:21;5.20;99.90
2447;DHT22;26430;48.818;9.244;2023-04-15T02:48:47;5.30;99.90
2447;DHT22;26430;48.818;9.244;2023-04-15T02:51:18;5.30;99.90
2447;DHT22;26430;48.818;9.244;2023-04-15T02:53:47;5.30;99.90
2447;DHT22;26430;48.818;9.244;2023-04-15T02:56:14;5.00;99.90
2447;DHT22;26430;48.818;9.244;2023-04-15T02:58:41;5.10;99.90
2447;DHT22;26430;48.818;9.244;2023-04-15T03:01:06;5.10;99.90
2447;DHT22;26430;48.818;9.244;2023-04-15T03:03:35;5.20;99.90
2447;DHT22;26430;48.818;9.244;2023-04-15T03:06:00;5.30;99.90
2447;DHT22;26430;48.818;9.244;2023-04-15T03:08:26;5.30;99.90
2447;DHT22;26430;48.818;9.244;2023-04-15T03:10:52;5.30;99.90
2447;DHT22;26430;48.818;9.244;2023-04-15T03:13:19;5.30;99.90
2447;DHT22;26430;48.818;9.244;2023-04-15T03:15:47;5.30;99.90
2447;DHT22;26430;48.818;9.244;2023-04-15T03:18:13;5.20;99.90
2447;DHT22;26430;48.818;9.244;2023-04-15T03:20:38;5.30;99.90
2447;DHT22;26430;48.818;9.244;2023-04-15T03:23:04;5.20;99.90
2447;DHT22;26430;48.818;9.244;2023-04-15T03:25:30;5.20;99.90
2447;DHT22;26430;48.818;9.244;2023-04-15T03:27:55;5.20;99.90
2447;DHT22;26430;48.818;9.244;2023-04-15T03:30:21;5.20;99.90
2447;DHT22;26430;48.818;9.244;2023-04-15T03:32:47;5.20;99.90
2447;DHT22;26430;48.818;9.244;2023-04-15T03:35:12;5.20;99.90
2447;DHT22;26430;48.818;9.244;2023-04-15T03:37:38;5.20;99.90
2447;DHT22;26430;48.818;9.244;2023-04-15T03:40:04;5.10;99.90
2447;DHT22;26430;48.818;9.244;2023-04-15T03:42:30;5.20;99.90
2447;DHT22;26430;48.818;9.244;2023-04-15T03:44:55;5.20;99.90
2447;DHT22;26430;48.818;9.244;2023-04-15T03:47:21;5.20;99.90
2447;DHT22;26430;48.818;9.244;2023-04-15T03:49:47;5.10;99.90
2447;DHT22;26430;48.818;9.244;2023-04-15T03:52:12;5.10;99.90
2447;DHT22;26430;48.818;9.244;2023-04-15T03:54:38;5.10;99.90
2447;DHT22;26430;48.818;9.244;2023-04-15T03:57:03;5.20;99.90
2447;DHT22;26430;48.818;9.244;2023-04-15T03:59:29;5.10;99.90
2447;DHT22;26430;48.818;9.244;2023-04-15T04:01:54;5.10;99.90
2447;DHT22;26430;48.818;9.244;2023-04-15T04:04:20;5.10;99.90
2447;DHT22;26430;48.818;9.244;2023-04-15T04:06:46;5.10;99.90
2447;DHT22;26430;48.818;9.244;2023-04-15T04:09:11;5.00;99.90
2447;DHT22;26430;48.818;9.244;2023-04-15T04:11:37;5.20;99.90
2447;DHT22;26430;48.818;9.244;2023-04-15T04:14:02;5.20;99.90
2447;DHT22;26430;48.818;9.244;2023-04-15T04:16:28;5.20;99.90
2447;DHT22;26430;48.818;9.244;2023-04-15T04:18:54;5.20;99.90
2447;DHT22;26430;48.818;9.244;2023-04-15T04:21:19;5.30;99.90
2447;DHT22;26430;48.818;9.244;2023-04-15T04:23:45;5.10;99.90
2447;DHT22;26430;48.818;9.244;2023-04-15T04:26:11;5.10;99.90
2447;DHT22;26430;48.818;9.244;2023-04-15T04:28:37;5.10;99.90
2447;DHT22;26430;48.818;9.244;2023-04-15T04:31:05;5.10;99.90
2447;DHT22;26430;48.818;9.244;2023-04-15T04:33:32;5.00;99.90
2447;DHT22;26430;48.818;9.244;2023-04-15T04:35:57;4.90;99.90
2447;DHT22;26430;48.818;9.244;2023-04-15T04:38:23;4.90;99.90
2447;DHT22;26430;48.818;9.244;2023-04-15T04:40:49;4.80;99.90
2447;DHT22;26430;48.818;9.244;2023-04-15T04:43:14;4.80;99.90
2447;DHT22;26430;48.818;9.244;2023-04-15T04:45:40;4.90;99.90
2447;DHT22;26430;48.818;9.244;2023-04-15T04:48:06;4.80;99.90
2447;DHT22;26430;48.818;9.244;2023-04-15T04:50:33;4.60;99.90
2447;DHT22;26430;48.818;9.244;2023-04-15T04:52:59;4.50;99.90
2447;DHT22;26430;48.818;9.244;2023-04-15T04:55:26;4.60;99.90
2447;DHT22;26430;48.818;9.244;2023-04-15T04:57:52;4.60;99.90
2447;DHT22;26430;48.818;9.244;2023-04-15T05:00:17;4.50;99.90
2447;DHT22;26430;48.818;9.244;2023-04-15T05:02:44;4.50;99.90
2447;DHT22;26430;48.818;9.244;2023-04-15T05:05:10;4.30;99.90
2447;DHT22;26430;48.818;9.244;2023-04-15T05:07:36;4.40;99.90
2447;DHT22;26430;48.818;9.244;2023-04-15T05:10:02;4.20;99.90
2447;DHT22;26430;48.818;9.244;2023-04-15T05:12:28;4.10;99.90
2447;DHT22;26430;48.818;9.244;2023-04-15T05:14:54;4.10;99.90
2447;DHT22;26430;48.818;9.244;2023-04-15T05:17:19;3.90;99.90
2447;DHT22;26430;48.818;9.244;2023-04-15T05:19:45;3.60;99.90
2447;DHT22;26430;48.818;9.244;2023-04-15T05:22:10;3.50;99.90
2447;DHT22;26430;48.818;9.244;2023-04-15T05:24:36;3.30;99.90
2447;DHT22;26430;48.818;9.244;2023-04-15T05:27:01;3.60;99.90
2447;DHT22;26430;48.818;9.244;2023-04-15T05:29:27;3.50;99.90
2447;DHT22;26430;48.818;9.244;2023-04-15T05:31:52;3.20;99.90
2447;DHT22;26430;48.818;9.244;2023-04-15T05:34:18;3.40;99.90
2447;DHT22;26430;48.818;9.244;2023-04-15T05:36:44;3.50;99.90
2447;DHT22;26430;48.818;9.244;2023-04-15T05:39:09;3.40;99.90
2447;DHT22;26430;48.818;9.244;2023-04-15T05:41:35;3.40;99.90
2447;DHT22;26430;48.818;9.244;2023-04-15T05:44:00;3.50;99.90
2447;DHT22;26430;48.818;9.244;2023-04-15T05:46:26;3.40;99.90
2447;DHT22;26430;48.818;9.244;2023-04-15T05:48:51;3.40;99.90
2447;DHT22;26430;48.818;9.244;2023-04-15T05:51:17;3.50;99.90
2447;DHT22;26430;48.818;9.244;2023-04-15T05:53:43;3.70;99.90
2447;DHT22;26430;48.818;9.244;2023-04-15T05:56:10;3.90;99.90
2447;DHT22;26430;48.818;9.244;2023-04-15T05:58:35;3.80;99.90
2447;DHT22;26430;48.818;9.244;2023-04-15T06:01:02;4.00;99.90
2447;DHT22;26430;48.818;9.244;2023-04-15T06:03:27;3.80;99.90
2447;DHT22;26430;48.818;9.244;2023-04-15T06:05:53;4.00;99.90
2447;DHT22;26430;48.818;9.244;2023-04-15T06:08:19;4.00;99.90
2447;DHT22;26430;48.818;9.244;2023-04-15T06:10:45;4.30;99.90
2447;DHT22;26430;48.818;9.244;2023-04-15T06:13:11;4.20;99.90
2447;DHT22;26430;48.818;9.244;2023-04-15T06:15:37;4.40;99.90
2447;DHT22;26430;48.818;9.244;2023-04-15T06:18:03;4.40;99.90
2447;DHT22;26430;48.818;9.244;2023-04-15T06:20:28;4.60;99.90
2447;DHT22;26430;48.818;9.244;2023-04-15T06:22:54;4.70;99.90
2447;DHT22;26430;48.818;9.244;2023-04-15T06:25:19;4.90;99.90
2447;DHT22;26430;48.818;9.244;2023-04-15T06:27:45;5.10;99.90
2447;DHT22;26430;48.818;9.244;2023-04-15T06:30:11;5.20;99.90
2447;DHT22;26430;48.818;9.244;2023-04-15T06:32:36;5.40;99.90
2447;DHT22;26430;48.818;9.244;2023-04-15T06:35:02;5.60;99.90
2447;DHT22;26430;48.818;9.244;2023-04-15T06:37:28;5.90;99.90
2447;DHT22;26430;48.818;9.244;2023-04-15T06:39:54;6.00;99.90
2447;DHT22;26430;48.818;9.244;2023-04-15T06:42:19;6.10;99.90
2447;DHT22;26430;48.818;9.244;2023-04-15T06:44:45;6.30;99.90
2447;DHT22;26430;48.818;9.244;2023-04-15T06:47:11;6.50;99.90
2447;DHT22;26430;48.818;9.244;2023-04-15T06:49:39;6.50;99.90
2447;DHT22;26430;48.818;9.244;2023-04-15T06:52:04;6.60;99.90
2447;DHT22;26430;48.818;9.244;2023-04-15T06:54:30;6.60;99.90
2447;DHT22;26430;48.818;9.244;2023-04-15T06:56:56;6.70;99.90
2447;DHT22;26430;48.818;9.244;2023-04-15T06:59:21;6.80;99.90
2447;DHT22;26430;48.818;9.244;2023-04-15T07:01:47;6.90;99.90
2447;DHT22;26430;48.818;9.244;2023-04-15T07:04:13;7.00;99.90
2447;DHT22;26430;48.818;9.244;2023-04-15T07:06:38;7.10;99.90
2447;DHT22;26430;48.818;9.244;2023-04-15T07:09:04;7.10;99.90
2447;DHT22;26430;48.818;9.244;2023-04-15T07:11:30;7.10;99.90
2447;DHT22;26430;48.818;9.244;2023-04-15T07:13:57;7.10;99.90
2447;DHT22;26430;48.818;9.244;2023-04-15T07:16:22;7.10;99.90
2447;DHT22;26430;48.818;9.244;2023-04-15T07:18:48;7.00;99.90
2447;DHT22;26430;48.818;9.244;2023-04-15T07:21:14;6.90;99.90
2447;DHT22;26430;48.818;9.244;2023-04-15T07:23:40;7.00;99.90
2447;DHT22;26430;48.818;9.244;2023-04-15T07:26:07;6.70;99.90
2447;DHT22;26430;48.818;9.244;2023-04-15T07:28:33;6.50;99.90
2447;DHT22;26430;48.818;9.244;2023-04-15T07:30:59;6.50;99.90
2447;DHT22;26430;48.818;9.244;2023-04-15T07:33:25;6.60;99.90
2447;DHT22;26430;48.818;9.244;2023-04-15T07:35:50;6.80;99.90
2447;DHT22;26430;48.818;9.244;2023-04-15T07:38:16;6.80;99.90
2447;DHT22;26430;48.818;9.244;2023-04-15T07:40:41;6.90;99.90
2447;DHT22;26430;48.818;9.244;2023-04-15T07:43:07;7.00;99.90
2447;DHT22;26430;48.818;9.244;2023-04-15T07:45:33;7.10;99.90
2447;DHT22;26430;48.818;9.244;2023-04-15T07:48:00;7.40;99.90
2447;DHT22;26430;48.818;9.244;2023-04-15T07:50:26;7.70;99.90
2447;DHT22;26430;48.818;9.244;2023-04-15T07:52:51;7.60;99.90
2447;DHT22;26430;48.818;9.244;2023-04-15T07:55:18;7.70;99.90
2447;DHT22;26430;48.818;9.244;2023-04-15T07:57:45;7.70;99.90
2447;DHT22;26430;48.818;9.244;2023-04-15T08:00:12;7.90;99.90
2447;DHT22;26430;48.818;9.244;2023-04-15T08:02:38;8.00;99.90
2447;DHT22;26430;48.818;9.244;2023-04-15T08:05:04;8.00;99.90
2447;DHT22;26430;48.818;9.244;2023-04-15T08:07:31;8.20;99.90
2447;DHT22;26430;48.818;9.244;2023-04-15T08:09:57;8.40;99.90
2447;DHT22;26430;48.818;9.244;2023-04-15T08:12:22;8.70;99.90
2447;DHT22;26430;48.818;9.244;2023-04-15T08:14:49;8.70;99.90
2447;DHT22;26430;48.818;9.244;2023-04-15T08:17:15;8.80;99.90
2447;DHT22;26430;48.818;9.244;2023-04-15T08:19:41;9.00;99.90
2447;DHT22;26430;48.818;9.244;2023-04-15T08:22:07;9.20;99.90
2447;DHT22;26430;48.818;9.244;2023-04-15T08:24:33;9.30;99.90
2447;DHT22;26430;48.818;9.244;2023-04-15T08:26:59;9.50;99.90
2447;DHT22;26430;48.818;9.244;2023-04-15T08:29:24;9.70;99.90
2447;DHT22;26430;48.818;9.244;2023-04-15T08:31:50;10.00;99.90
2447;DHT22;26430;48.818;9.244;2023-04-15T08:34:16;10.40;99.90
2447;DHT22;26430;48.818;9.244;2023-04-15T08:36:42;10.40;99.90
2447;DHT22;26430;48.818;9.244;2023-04-15T08:39:08;10.20;99.90
2447;DHT22;26430;48.818;9.244;2023-04-15T08:41:45;10.20;99.90
2447;DHT22;26430;48.818;9.244;2023-04-15T08:44:14;10.50;99.90
2447;DHT22;26430;48.818;9.244;2023-04-15T08:46:40;10.70;99.90
2447;DHT22;26430;48.818;9.244;2023-04-15T08:49:10;11.00;99.90
2447;DHT22;26430;48.818;9.244;2023-04-15T08:51:38;11.10;99.90
2447;DHT22;26430;48.818;9.244;2023-04-15T08:54:04;11.30;99.90
2447;DHT22;26430;48.818;9.244;2023-04-15T08:56:31;11.40;99.90
2447;DHT22;26430;48.818;9.244;2023-04-15T08:58:58;11.60;99.90
2447;DHT22;26430;48.818;9.244;2023-04-15T09:01:24;11.70;99.90
2447;DHT22;26430;48.818;9.244;2023-04-15T09:03:50;11.90;99.90
2447;DHT22;26430;48.818;9.244;2023-04-15T09:06:17;11.90;99.90
2447;DHT22;26430;48.818;9.244;2023-04-15T09:08:43;12.00;99.90
2447;DHT22;26430;48.818;9.244;2023-04-15T09:11:09;12.00;99.90
2447;DHT22;26430;48.818;9.244;2023-04-15T09:13:35;11.80;99.90
2447;DHT22;26430;48.818;9.244;2023-04-15T09:16:01;11.90;99.90
2447;DHT22;26430;48.818;9.244;2023-04-15T09:18:30;12.10;99.90
2447;DHT22;26430;48.818;9.244;2023-04-15T09:23:33;12.50;99.90
2447;DHT22;26430;48.818;9.244;2023-04-15T09:26:00;12.70;99.90
2447;DHT22;26430;48.818;9.244;2023-04-15T09:28:27;13.00;99.90
2447;DHT22;26430;48.818;9.244;2023-04-15T09:31:02;13.20;99.90
2447;DHT22;26430;48.818;9.244;2023-04-15T09:33:28;13.40;99.90
2447;DHT22;26430;48.818;9.244;2023-04-15T09:38:23;13.60;99.90
2447;DHT22;26430;48.818;9.244;2023-04-15T09:40:49;13.70;99.90
2447;DHT22;26430;48.818;9.244;2023-04-15T09:43:14;13.80;99.90
2447;DHT22;26430;48.818;9.244;2023-04-15T09:45:52;13.80;99.90
2447;DHT22;26430;48.818;9.244;2023-04-15T09:48:23;13.90;99.90
2447;DHT22;26430;48.818;9.244;2023-04-15T09:50:51;14.00;99.90
2447;DHT22;26430;48.818;9.244;2023-04-15T09:53:22;14.00;99.90
2447;DHT22;26430;48.818;9.244;2023-04-15T09:55:57;14.00;99.90
2447;DHT22;26430;48.818;9.244;2023-04-15T09:58:27;14.00;99.90
2447;DHT22;26430;48.818;9.244;2023-04-15T10:00:54;14.30;99.90
2447;DHT22;26430;48.818;9.244;2023-04-15T10:03:40;14.70;99.90
2447;DHT22;26430;48.818;9.244;2023-04-15T10:06:07;14.80;99.90
2447;DHT22;26430;48.818;9.244;2023-04-15T10:08:33;14.80;99.90
2447;DHT22;26430;48.818;9.244;2023-04-15T10:11:02;14.80;99.90
2447;DHT22;26430;48.818;9.244;2023-04-15T10:13:30;14.70;99.90
2447;DHT22;26430;48.818;9.244;2023-04-15T10:16:11;15.00;99.90
2447;DHT22;26430;48.818;9.244;2023-04-15T10:18:42;15.50;99.90
2447;DHT22;26430;48.818;9.244;2023-04-15T10:21:08;16.70;99.90
2447;DHT22;26430;48.818;9.244;2023-04-15T10:23:34;17.40;99.90
2447;DHT22;26430;48.818;9.244;2023-04-15T10:26:02;17.90;98.00
2447;DHT22;26430;48.818;9.244;2023-04-15T10:28:28;17.80;97.00
2447;DHT22;26430;48.818;9.244;2023-04-15T10:30:54;17.70;96.50
2447;DHT22;26430;48.818;9.244;2023-04-15T10:33:22;17.60;96.00
2447;DHT22;26430;48.818;9.244;2023-04-15T10:35:49;17.30;94.70
2447;DHT22;26430;48.818;9.244;2023-04-15T10:41:22;16.60;93.40
2447;DHT22;26430;48.818;9.244;2023-04-15T10:43:59;16.40;94.60
2447;DHT22;26430;48.818;9.244;2023-04-15T10:46:40;16.30;94.20
2447;DHT22;26430;48.818;9.244;2023-04-15T10:51:40;16.60;94.60
2447;DHT22;26430;48.818;9.244;2023-04-15T10:54:14;17.10;94.30
2447;DHT22;26430;48.818;9.244;2023-04-15T10:57:13;17.30;93.30
2447;DHT22;26430;48.818;9.244;2023-04-15T10:59:37;17.40;93.40
2447;DHT22;26430;48.818;9.244;2023-04-15T11:02:05;17.20;93.20
2447;DHT22;26430;48.818;9.244;2023-04-15T11:04:54;16.90;92.30
2447;DHT22;26430;48.818;9.244;2023-04-15T11:07:39;16.70;93.70
2447;DHT22;26430;48.818;9.244;2023-04-15T11:12:50;17.20;93.10
2447;DHT22;26430;48.818;9.244;2023-04-15T11:17:55;18.00;91.10
2447;DHT22;26430;48.818;9.244;2023-04-15T11:20:22;18.00;91.00
2447;DHT22;26430;48.818;9.244;2023-04-15T11:22:54;17.80;91.20
2447;DHT22;26430;48.818;9.244;2023-04-15T11:25:30;17.80;89.50
2447;DHT22;26430;48.818;9.244;2023-04-15T11:27:57;17.80;90.40
2447;DHT22;26430;48.818;9.244;2023-04-15T11:30:27;17.70;91.30
2447;DHT22;26430;48.818;9.244;2023-04-15T11:32:58;17.50;91.40
2447;DHT22;26430;48.818;9.244;2023-04-15T11:35:24;17.40;91.90
2447;DHT22;26430;48.818;9.244;2023-04-15T11:37:50;17.30;92.00
2447;DHT22;26430;48.818;9.244;2023-04-15T11:40:16;16.90;92.40
2447;DHT22;26430;48.818;9.244;2023-04-15T11:42:46;16.40;93.50
2447;DHT22;26430;48.818;9.244;2023-04-15T11:45:27;16.00;94.70
2447;DHT22;26430;48.818;9.244;2023-04-15T11:47:53;15.70;96.20
2447;DHT22;26430;48.818;9.244;2023-04-15T11:50:21;15.40;96.10
2447;DHT22;26430;48.818;9.244;2023-04-15T11:52:58;15.10;97.30
2447;DHT22;26430;48.818;9.244;2023-04-15T11:55:25;15.20;95.50
2447;DHT22;26430;48.818;9.244;2023-04-15T12:00:38;15.00;95.60
2447;DHT22;26430;48.818;9.244;2023-04-15T12:03:30;15.20;95.00
2447;DHT22;26430;48.818;9.244;2023-04-15T12:06:16;15.40;94.50
2447;DHT22;26430;48.818;9.244;2023-04-15T12:09:03;15.40;94.20
2447;DHT22;26430;48.818;9.244;2023-04-15T12:11:50;15.30;94.40
2447;DHT22;26430;48.818;9.244;2023-04-15T12:14:25;15.20;94.80
2447;DHT22;26430;48.818;9.244;2023-04-15T12:17:12;15.00;93.80
2447;DHT22;26430;48.818;9.244;2023-04-15T12:19:40;14.90;93.90
2447;DHT22;26430;48.818;9.244;2023-04-15T12:22:11;14.70;93.20
2447;DHT22;26430;48.818;9.244;2023-04-15T12:24:38;14.60;93.30
2447;DHT22;26430;48.818;9.244;2023-04-15T12:27:04;14.50;94.50
2447;DHT22;26430;48.818;9.244;2023-04-15T12:29:31;14.30;96.20
2447;DHT22;26430;48.818;9.244;2023-04-15T12:32:17;13.70;97.30
2447;DHT22;26430;48.818;9.244;2023-04-15T12:34:52;13.40;99.90
2447;DHT22;26430;48.818;9.244;2023-04-15T12:37:19;13.10;99.90
2447;DHT22;26430;48.818;9.244;2023-04-15T12:39:46;12.80;99.90
2447;DHT22;26430;48.818;9.244;2023-04-15T12:42:14;12.40;99.90
2447;DHT22;26430;48.818;9.244;2023-04-15T12:44:40;12.20;99.90
2447;DHT22;26430;48.818;9.244;2023-04-15T12:47:07;11.80;99.90
2447;DHT22;26430;48.818;9.244;2023-04-15T12:49:33;11.80;99.90
2447;DHT22;26430;48.818;9.244;2023-04-15T12:52:00;11.60;99.90
2447;DHT22;26430;48.818;9.244;2023-04-15T12:54:26;11.70;99.90
2447;DHT22;26430;48.818;9.244;2023-04-15T12:56:52;11.80;99.90
2447;DHT22;26430;48.818;9.244;2023-04-15T12:59:19;11.90;99.90
2447;DHT22;26430;48.818;9.244;2023-04-15T13:01:46;12.00;99.90
2447;DHT22;26430;48.818;9.244;2023-04-15T13:04:12;12.20;99.90
2447;DHT22;26430;48.818;9.244;2023-04-15T13:06:38;12.30;99.90
2447;DHT22;26430;48.818;9.244;2023-04-15T13:09:04;12.30;99.90
2447;DHT22;26430;48.818;9.244;2023-04-15T13:11:30;12.20;99.90
2447;DHT22;26430;48.818;9.244;2023-04-15T13:13:59;12.30;99.90
2447;DHT22;26430;48.818;9.244;2023-04-15T13:16:25;12.20;99.90
2447;DHT22;26430;48.818;9.244;2023-04-15T13:18:50;12.20;99.90
2447;DHT22;26430;48.818;9.244;2023-04-15T13:21:17;12.30;99.90
2447;DHT22;26430;48.818;9.244;2023-04-15T13:23:42;12.40;99.90
2447;DHT22;26430;48.818;9.244;2023-04-15T13:26:08;12.60;99.90
2447;DHT22;26430;48.818;9.244;2023-04-15T13:28:34;12.80;99.90
2447;DHT22;26430;48.818;9.244;2023-04-15T13:30:59;13.00;99.90
2447;DHT22;26430;48.818;9.244;2023-04-15T13:33:25;13.20;99.90
2447;DHT22;26430;48.818;9.244;2023-04-15T13:35:51;13.30;99.90
2447;DHT22;26430;48.818;9.244;2023-04-15T13:38:17;13.60;99.90
2447;DHT22;26430;48.818;9.244;2023-04-15T13:40:43;13.70;99.90
2447;DHT22;26430;48.818;9.244;2023-04-15T13:43:08;13.90;99.90
2447;DHT22;26430;48.818;9.244;2023-04-15T13:45:34;13.90;99.90
2447;DHT22;26430;48.818;9.244;2023-04-15T13:48:00;14.00;99.90
2447;DHT22;26430;48.818;9.244;2023-04-15T13:50:26;13.70;99.90
2447;DHT22;26430;48.818;9.244;2023-04-15T13:52:52;13.50;99.90
2447;DHT22;26430;48.818;9.244;2023-04-15T13:55:18;13.40;99.90
2447;DHT22;26430;48.818;9.244;2023-04-15T13:57:44;13.30;99.90
2447;DHT22;26430;48.818;9.244;2023-04-15T14:00:10;13.30;99.50
2447;DHT22;26430;48.818;9.244;2023-04-15T14:02:36;13.30;95.80
2447;DHT22;26430;48.818;9.244;2023-04-15T14:05:01;13.10;95.80
2447;DHT22;26430;48.818;9.244;2023-04-15T14:07:28;13.10;96.80
2447;DHT22;26430;48.818;9.244;2023-04-15T14:09:55;13.20;95.90
2447;DHT22;26430;48.818;9.244;2023-04-15T14:12:20;13.10;96.50
2447;DHT22;26430;48.818;9.244;2023-04-15T14:14:46;13.10;95.90
2447;DHT22;26430;48.818;9.244;2023-04-15T14:17:11;13.00;97.50
2447;DHT22;26430;48.818;9.244;2023-04-15T14:19:37;12.90;95.40
2447;DHT22;26430;48.818;9.244;2023-04-15T14:22:03;13.00;96.60
2447;DHT22;26430;48.818;9.244;2023-04-15T14:24:28;13.20;96.40
2447;DHT22;26430;48.818;9.244;2023-04-15T14:26:54;13.30;96.90
2447;DHT22;26430;48.818;9.244;2023-04-15T14:29:21;13.20;97.10
2447;DHT22;26430;48.818;9.244;2023-04-15T14:31:46;13.30;97.20
2447;DHT22;26430;48.818;9.244;2023-04-15T14:34:14;13.30;96.80
2447;DHT22;26430;48.818;9.244;2023-04-15T14:36:40;13.20;98.00
2447;DHT22;26430;48.818;9.244;2023-04-15T14:39:06;13.20;96.10
2447;DHT22;26430;48.818;9.244;2023-04-15T14:41:32;13.10;96.40
2447;DHT22;26430;48.818;9.244;2023-04-15T14:43:58;12.90;96.90
2447;DHT22;26430;48.818;9.244;2023-04-15T14:46:24;12.80;95.10
2447;DHT22;26430;48.818;9.244;2023-04-15T14:48:50;12.50;95.30
2447;DHT22;26430;48.818;9.244;2023-04-15T14:51:16;12.30;95.20
2447;DHT22;26430;48.818;9.244;2023-04-15T14:53:41;12.10;95.40
2447;DHT22;26430;48.818;9.244;2023-04-15T14:56:08;12.10;95.90
2447;DHT22;26430;48.818;9.244;2023-04-15T14:58:34;12.10;96.00
2447;DHT22;26430;48.818;9.244;2023-04-15T15:01:00;11.90;95.80
2447;DHT22;26430;48.818;9.244;2023-04-15T15:03:27;11.90;96.60
2447;DHT22;26430;48.818;9.244;2023-04-15T15:05:53;11.80;97.40
2447;DHT22;26430;48.818;9.244;2023-04-15T15:08:19;11.90;97.90
2447;DHT22;26430;48.818;9.244;2023-04-15T15:10:44;11.90;97.80
2447;DHT22;26430;48.818;9.244;2023-04-15T15:13:10;11.80;99.40
2447;DHT22;26430;48.818;9.244;2023-04-15T15:15:37;11.90;98.90
2447;DHT22;26430;48.818;9.244;2023-04-15T15:18:03;11.90;99.60
2447;DHT22;26430;48.818;9.244;2023-04-15T15:20:29;11.80;99.30
2447;DHT22;26430;48.818;9.244;2023-04-15T15:22:55;11.70;99.90
2447;DHT22;26430;48.818;9.244;2023-04-15T15:25:20;11.70;99.50
2447;DHT22;26430;48.818;9.244;2023-04-15T15:27:47;11.70;99.50
2447;DHT22;26430;48.818;9.244;2023-04-15T15:30:13;11.70;99.90
2447;DHT22;26430;48.818;9.244;2023-04-15T15:32:39;11.70;99.90
2447;DHT22;26430;48.818;9.244;2023-04-15T15:35:06;11.80;99.90
2447;DHT22;26430;48.818;9.244;2023-04-15T15:37:32;11.90;99.90
2447;DHT22;26430;48.818;9.244;2023-04-15T15:39:58;11.80;99.90
2447;DHT22;26430;48.818;9.244;2023-04-15T15:42:24;11.80;99.90
2447;DHT22;26430;48.818;9.244;2023-04-15T15:44:49;11.70;99.90
2447;DHT22;26430;48.818;9.244;2023-04-15T15:47:20;11.70;99.90
2447;DHT22;26430;48.818;9.244;2023-04-15T15:49:46;11.80;99.90
2447;DHT22;26430;48.818;9.244;2023-04-15T15:52:12;11.80;99.90
2447;DHT22;26430;48.818;9.244;2023-04-15T15:54:38;11.90;99.90
2447;DHT22;26430;48.818;9.244;2023-04-15T15:57:04;11.60;99.90
2447;DHT22;26430;48.818;9.244;2023-04-15T15:59:30;11.70;99.90
2447;DHT22;26430;48.818;9.244;2023-04-15T16:01:57;11.60;99.90
2447;DHT22;26430;48.818;9.244;2023-04-15T16:04:23;11.60;99.90
2447;DHT22;26430;48.818;9.244;2023-04-15T16:06:48;11.50;99.90
2447;DHT22;26430;48.818;9.244;2023-04-15T16:09:14;11.40;99.90
2447;DHT22;26430;48.818;9.244;2023-04-15T16:11:40;11.20;99.90